RJSK

Akita Airport

Akita, Japan
METAR RJSK 181200Z VRB02KT 9999 FEW030 BKN045 15/11 Q1014
Observed Flight Rules
Sep-18 @ 12:00 UTC (6 hours ago) Visual Flight Rules
Wind Visibility Clouds
Variable at 2 knots 10,000+ meters
  • Few at 3,000' AGL
  • Broken at 4,500' AGL
Temperatures Readings
Current 15°C / 59°F
Dewpoint 11°C / 52°F
Humidity 77%
Altimeter 29.94" Hg
Pressure 1014 hPa
Elevation 96
METAR RJSK 181200Z VRB02KT 9999 FEW030 BKN045 15/11 Q1014
Observed Flight Rules
Sep-18 @ 12:00 UTC
(6 hours ago)
VFR
Wind Visibility
Variable at 2 knots 10,000+ meters
Clouds
  • Few at 3,000' AGL
  • Broken at 4,500' AGL
Temperature Dewpoint
15°C / 59°F 11°C / 52°F
Humidity Altimeter Pressure
77% 29.94" Hg 1014 hPa